Time;durP1;ratioP1;P1;durP2;ratioP2;P2;SDS_P1;SDS_P2;PMS_P1;PMS_P2;Temp;Humidity;BMP_temperature;BMP_pressure;BME280_temperature;BME280_humidity;BME280_pressure;Samples;Min_cycle;Max_cycle;Signal;HPM_P1;HPM_P2
2023/01/21 00:00:53;;;;;;;216.95;54.70;;;;;;;-144.87;100.00;61487.56;5026089;28;20507;-77
2023/01/21 00:03:19;;;;;;;195.20;52.28;;;;;;;-144.87;100.00;61487.56;5009359;28;20046;-78
2023/01/21 00:05:46;;;;;;;222.23;55.85;;;;;;;-144.87;100.00;61487.56;5002615;28;20088;-78
2023/01/21 00:08:12;;;;;;;216.77;55.85;;;;;;;-144.87;100.00;61487.56;5041484;28;20062;-77
2023/01/21 00:10:38;;;;;;;211.82;54.38;;;;;;;-144.87;100.00;61487.56;5010210;28;20076;-77
2023/01/21 00:13:05;;;;;;;221.43;54.25;;;;;;;-144.87;100.00;61487.56;4993333;28;20060;-77
2023/01/21 00:15:34;;;;;;;232.82;57.45;;;;;;;-144.87;100.00;61487.56;5009707;28;20065;-77
2023/01/21 00:18:00;;;;;;;236.27;57.45;;;;;;;-144.87;100.00;61487.56;4974818;28;20257;-78
2023/01/21 00:20:27;;;;;;;219.85;57.00;;;;;;;-144.87;100.00;61487.56;5001641;28;20448;-77
2023/01/21 00:22:53;;;;;;;212.55;56.92;;;;;;;-144.87;100.00;61487.56;5011273;28;20408;-77
2023/01/21 00:25:20;;;;;;;228.52;59.15;;;;;;;-144.87;100.00;61487.56;5025367;28;20038;-77
2023/01/21 00:27:46;;;;;;;234.43;58.75;;;;;;;-144.87;100.00;61487.56;5009019;28;20037;-78
2023/01/21 00:30:12;;;;;;;212.13;56.92;;;;;;;-144.87;100.00;61487.56;5041857;28;20412;-77
2023/01/21 00:32:39;;;;;;;214.00;57.72;;;;;;;-144.87;100.00;61487.56;5008943;28;20120;-77
2023/01/21 00:35:06;;;;;;;199.57;52.72;;;;;;;-144.87;100.00;61487.56;5002798;28;20040;-77
2023/01/21 00:37:33;;;;;;;207.70;55.88;;;;;;;-144.87;100.00;61487.56;5013373;28;20054;-77
2023/01/21 00:39:59;;;;;;;207.65;54.08;;;;;;;-144.87;100.00;61487.56;5010141;28;20045;-77
2023/01/21 00:42:26;;;;;;;201.65;53.65;;;;;;;-144.87;100.00;61487.56;5008395;28;20472;-77
2023/01/21 00:44:53;;;;;;;189.50;51.30;;;;;;;-144.87;100.00;61487.56;5009352;28;20050;-77
2023/01/21 00:47:20;;;;;;;183.93;51.17;;;;;;;-144.87;100.00;61487.56;5009381;28;20366;-77
2023/01/21 00:49:46;;;;;;;178.27;51.05;;;;;;;-144.87;100.00;61487.56;5024617;28;20473;-77
2023/01/21 00:52:12;;;;;;;173.13;48.72;;;;;;;-144.87;100.00;61487.56;5008359;28;20053;-77
2023/01/21 00:54:38;;;;;;;175.32;49.78;;;;;;;-144.87;100.00;61487.56;5040277;28;20038;-77
2023/01/21 00:57:05;;;;;;;170.45;46.60;;;;;;;-144.87;100.00;61487.56;5008456;28;20041;-77
2023/01/21 00:59:32;;;;;;;166.68;49.60;;;;;;;-144.87;100.00;61487.56;5024239;28;20064;-76
2023/01/21 01:01:58;;;;;;;174.82;49.17;;;;;;;-144.87;100.00;61487.56;5007793;28;20041;-77
2023/01/21 01:04:25;;;;;;;175.27;48.55;;;;;;;-144.87;100.00;61487.56;5007781;28;20048;-76
2023/01/21 01:06:51;;;;;;;186.77;50.05;;;;;;;-144.87;100.00;61487.56;5009515;28;20107;-77
2023/01/21 01:09:17;;;;;;;161.82;45.95;;;;;;;-144.87;100.00;61487.56;5007904;28;20125;-77
2023/01/21 01:11:43;;;;;;;156.18;45.47;;;;;;;-144.87;100.00;61487.56;5041141;28;20042;-77
2023/01/21 01:14:10;;;;;;;166.70;49.60;;;;;;;-144.87;100.00;61487.56;5038233;28;20038;-77
2023/01/21 01:16:36;;;;;;;180.18;49.20;;;;;;;-144.87;100.00;61487.56;5008202;28;20072;-77
2023/01/21 01:19:02;;;;;;;175.80;49.47;;;;;;;-144.87;100.00;61487.56;5007529;28;20398;-76
2023/01/21 01:21:29;;;;;;;182.13;49.92;;;;;;;-144.87;100.00;61487.56;5041424;28;20062;-78
2023/01/21 01:23:59;;;;;;;190.98;48.92;;;;;;;-144.87;100.00;61487.56;5021930;28;20041;-78
2023/01/21 01:26:26;;;;;;;180.05;49.70;;;;;;;-144.87;100.00;61487.56;5020750;28;20445;-78
2023/01/21 01:28:52;;;;;;;171.75;48.75;;;;;;;-144.87;100.00;61487.56;5005025;28;20037;-78
2023/01/21 01:31:20;;;;;;;159.70;45.00;;;;;;;-144.87;100.00;61487.56;5008621;28;20120;-78
2023/01/21 01:33:46;;;;;;;150.43;45.25;;;;;;;-144.87;100.00;61487.56;5023162;28;20045;-76
2023/01/21 01:36:22;;;;;;;157.57;44.72;;;;;;;-144.87;100.00;61487.56;5008424;28;20388;-77
2023/01/21 01:38:49;;;;;;;147.35;43.20;;;;;;;-144.87;100.00;61487.56;5019765;28;20508;-77
2023/01/21 01:41:19;;;;;;;160.05;43.60;;;;;;;-144.87;100.00;61487.56;4989867;28;20041;-77
2023/01/21 01:44:00;;;;;;;166.75;45.55;;;;;;;-144.87;100.00;61487.56;5036321;28;20137;-77
2023/01/21 01:46:29;;;;;;;177.38;47.38;;;;;;;-144.87;100.00;61487.56;5040304;28;20120;-77
2023/01/21 01:49:16;;;;;;;159.32;45.28;;;;;;;-144.87;100.00;61487.56;5024126;28;20092;-77
2023/01/21 01:51:55;;;;;;;170.00;44.10;;;;;;;-144.87;100.00;61487.56;5008082;28;20049;-77
2023/01/21 01:54:34;;;;;;;172.45;46.45;;;;;;;-144.87;100.00;61487.56;5041034;28;20049;-77
2023/01/21 01:57:03;;;;;;;175.23;46.53;;;;;;;-144.87;100.00;61487.56;5051195;28;20036;-76
2023/01/21 01:59:30;;;;;;;171.50;46.00;;;;;;;-144.87;100.00;61487.56;5024620;28;20038;-75
2023/01/21 02:01:59;;;;;;;168.13;48.08;;;;;;;-144.87;100.00;61487.56;5030443;28;20087;-77
2023/01/21 02:04:30;;;;;;;162.40;45.65;;;;;;;-144.87;100.00;61487.56;4991748;28;20395;-78
2023/01/21 02:06:57;;;;;;;182.90;48.55;;;;;;;-144.87;100.00;61487.56;5023161;28;20474;-76
2023/01/21 02:09:28;;;;;;;171.57;44.47;;;;;;;-144.87;100.00;61487.56;5006589;28;20401;-75
2023/01/21 02:11:58;;;;;;;169.98;46.63;;;;;;;-144.87;100.00;61487.56;5035297;28;20038;-78
2023/01/21 02:14:25;;;;;;;170.27;48.85;;;;;;;-144.87;100.00;61487.56;5006231;28;20125;-78
2023/01/21 02:17:00;;;;;;;171.13;45.58;;;;;;;-144.87;100.00;61487.56;5007394;28;20053;-78
2023/01/21 02:19:57;;;;;;;174.75;47.00;;;;;;;-144.87;100.00;61487.56;5040242;28;20431;-79
2023/01/21 02:22:31;;;;;;;190.95;47.17;;;;;;;-144.87;100.00;61487.56;4993192;28;20500;-79
2023/01/21 02:25:29;;;;;;;182.27;46.13;;;;;;;-144.87;100.00;61487.56;5022515;28;20040;-78
2023/01/21 02:28:11;;;;;;;165.82;44.17;;;;;;;-144.87;100.00;61487.56;4999524;28;20135;-79
2023/01/21 02:30:40;;;;;;;183.93;44.97;;;;;;;-144.87;100.00;61487.56;5029947;28;20036;-78
2023/01/21 02:33:50;;;;;;;181.13;44.95;;;;;;;-144.87;100.00;61487.56;5007807;28;20034;-77
2023/01/21 02:36:30;;;;;;;189.95;47.28;;;;;;;-144.87;100.00;61487.56;4975391;28;20050;-77
2023/01/21 02:39:08;;;;;;;189.30;46.95;;;;;;;-144.87;100.00;61487.56;5038942;28;20096;-77
2023/01/21 02:41:43;;;;;;;192.25;47.70;;;;;;;-144.87;100.00;61487.56;5040258;28;20050;-77
2023/01/21 02:44:12;;;;;;;193.50;46.40;;;;;;;-144.87;100.00;61487.56;5039622;28;20069;-78
2023/01/21 02:46:56;;;;;;;213.15;47.45;;;;;;;-144.87;100.00;61487.56;5024060;28;20414;-77
2023/01/21 02:49:43;;;;;;;192.52;47.67;;;;;;;-144.87;100.00;61487.56;5009313;28;20058;-77
2023/01/21 02:52:21;;;;;;;205.18;51.20;;;;;;;-144.87;100.00;61487.56;5009952;28;20033;-77
2023/01/21 02:54:49;;;;;;;211.82;50.97;;;;;;;-144.87;100.00;61487.56;5014575;28;20434;-77
2023/01/21 02:57:57;;;;;;;207.65;51.97;;;;;;;-144.87;100.00;61487.56;5043740;28;20141;-76
2023/01/21 03:00:27;;;;;;;212.80;48.45;;;;;;;-144.87;100.00;61487.56;5008648;28;20038;-77
2023/01/21 03:02:54;;;;;;;234.13;53.25;;;;;;;-144.87;100.00;61487.56;4992415;28;20390;-77
2023/01/21 03:05:39;;;;;;;225.20;49.88;;;;;;;-144.87;100.00;61487.56;5000385;28;20049;-77
2023/01/21 03:08:17;;;;;;;221.73;49.72;;;;;;;-144.87;100.00;61487.56;5009379;28;20030;-77
2023/01/21 03:10:54;;;;;;;230.55;50.05;;;;;;;-144.87;100.00;61487.56;5024631;28;20041;-77
2023/01/21 03:19:06;;;;;;;254.30;54.15;;;;;;;-144.87;100.00;61487.56;5038260;28;20416;-77
2023/01/21 03:21:33;;;;;;;230.38;52.40;;;;;;;-144.87;100.00;61487.56;4992684;28;20046;-77
2023/01/21 03:23:59;;;;;;;224.88;49.33;;;;;;;-144.87;100.00;61487.56;5026473;28;20129;-77
2023/01/21 03:26:35;;;;;;;231.25;52.63;;;;;;;-144.87;100.00;61487.56;5006050;28;20066;-77
2023/01/21 03:29:05;;;;;;;247.68;51.33;;;;;;;-144.87;100.00;61487.56;5040118;28;20084;-77
2023/01/21 03:31:33;;;;;;;243.82;54.15;;;;;;;-144.87;100.00;61487.56;5025200;28;20407;-77
2023/01/21 03:34:03;;;;;;;246.57;54.17;;;;;;;-144.87;100.00;61487.56;5042285;28;20036;-77
2023/01/21 03:36:42;;;;;;;231.13;51.78;;;;;;;-144.87;100.00;61487.56;5031039;28;20073;-76
2023/01/21 03:39:32;;;;;;;247.10;51.13;;;;;;;-144.87;100.00;61487.56;5058733;28;20018;-76
2023/01/21 03:41:59;;;;;;;260.88;53.55;;;;;;;-144.87;100.00;61487.56;5017087;28;20037;-76
2023/01/21 03:44:25;;;;;;;239.32;52.60;;;;;;;-144.87;100.00;61487.56;5028937;28;20057;-79
2023/01/21 03:47:10;;;;;;;241.43;51.50;;;;;;;-144.87;100.00;61487.56;5009952;28;20305;-76
2023/01/21 03:50:00;;;;;;;222.25;50.97;;;;;;;-144.87;100.00;61487.56;5025253;28;20084;-77
2023/01/21 03:52:27;;;;;;;232.43;49.30;;;;;;;-144.87;100.00;61487.56;5041049;28;20034;-77
2023/01/21 03:54:53;;;;;;;237.50;53.67;;;;;;;-144.87;100.00;61487.56;5009958;28;20125;-77
2023/01/21 03:57:20;;;;;;;237.60;52.90;;;;;;;-144.87;100.00;61487.56;5025058;28;20022;-77
2023/01/21 03:59:46;;;;;;;257.27;53.03;;;;;;;-144.87;100.00;61487.56;5043096;28;20069;-77
2023/01/21 04:02:18;;;;;;;265.58;52.97;;;;;;;-144.87;100.00;61487.56;5012432;28;20042;-77
2023/01/21 04:04:44;;;;;;;241.13;52.67;;;;;;;-144.87;100.00;61487.56;5002949;28;20033;-77
2023/01/21 04:07:11;;;;;;;228.63;52.13;;;;;;;-144.87;100.00;61487.56;4992928;28;20042;-78
2023/01/21 04:09:37;;;;;;;240.15;52.67;;;;;;;-144.87;100.00;61487.56;5010300;28;20560;-77
2023/01/21 04:12:03;;;;;;;252.73;51.95;;;;;;;-144.87;100.00;61487.56;5040454;28;20077;-77
2023/01/21 04:14:30;;;;;;;260.77;53.15;;;;;;;-144.87;100.00;61487.56;5009150;28;20053;-77
2023/01/21 04:16:56;;;;;;;233.23;49.75;;;;;;;-144.87;100.00;61487.56;5025555;28;20541;-77
2023/01/21 04:19:22;;;;;;;237.55;51.47;;;;;;;-144.87;100.00;61487.56;5013358;28;20455;-77
2023/01/21 04:21:49;;;;;;;241.77;52.00;;;;;;;-144.87;100.00;61487.56;5009988;28;20042;-77
2023/01/21 04:24:15;;;;;;;245.52;54.70;;;;;;;-144.87;100.00;61487.56;5041394;28;20136;-77
2023/01/21 04:26:41;;;;;;;264.15;55.03;;;;;;;-144.87;100.00;61487.56;5041993;28;20132;-76
2023/01/21 04:29:08;;;;;;;256.80;52.35;;;;;;;-144.87;100.00;61487.56;5007159;28;20034;-76
2023/01/21 04:31:34;;;;;;;253.07;53.95;;;;;;;-144.87;100.00;61487.56;5006876;28;20030;-77
2023/01/21 04:34:01;;;;;;;259.13;54.05;;;;;;;-144.87;100.00;61487.56;5009607;28;20037;-76
2023/01/21 04:36:27;;;;;;;284.77;57.28;;;;;;;-144.87;100.00;61487.56;5025478;28;20034;-76
2023/01/21 04:38:54;;;;;;;293.20;58.92;;;;;;;-144.87;100.00;61487.56;5009615;28;20029;-77
2023/01/21 04:41:20;;;;;;;302.88;60.17;;;;;;;-144.87;100.00;61487.56;5007868;28;20030;-77
2023/01/21 04:43:46;;;;;;;276.80;56.40;;;;;;;-144.87;100.00;61487.56;5038484;28;20034;-76
2023/01/21 04:46:12;;;;;;;295.77;56.72;;;;;;;-144.87;100.00;61487.56;5005754;28;20039;-77
2023/01/21 04:48:38;;;;;;;282.90;57.30;;;;;;;-144.87;100.00;61487.56;5009436;28;20459;-77
2023/01/21 04:51:05;;;;;;;270.67;54.83;;;;;;;-144.87;100.00;61487.56;5023392;28;20417;-77
2023/01/21 04:53:32;;;;;;;279.95;56.08;;;;;;;-144.87;100.00;61487.56;5008150;28;20701;-77
2023/01/21 04:55:58;;;;;;;281.10;55.20;;;;;;;-144.87;100.00;61487.56;5024082;28;20037;-77
2023/01/21 04:58:26;;;;;;;260.08;55.60;;;;;;;-144.87;100.00;61487.56;5024061;28;20127;-77
2023/01/21 05:00:54;;;;;;;265.70;54.97;;;;;;;-144.87;100.00;61487.56;5004436;28;20542;-76
2023/01/21 05:03:20;;;;;;;253.27;54.28;;;;;;;-144.87;100.00;61487.56;5023887;28;20137;-77
2023/01/21 05:05:46;;;;;;;235.90;48.30;;;;;;;-144.87;100.00;61487.56;5024973;28;20048;-77
2023/01/21 05:08:13;;;;;;;242.00;50.08;;;;;;;-144.87;100.00;61487.56;5022884;28;20042;-78
2023/01/21 05:10:39;;;;;;;239.15;51.47;;;;;;;-144.87;100.00;61487.56;5040602;28;20057;-76
2023/01/21 05:13:05;;;;;;;243.88;51.47;;;;;;;-144.87;100.00;61487.56;5009245;28;20350;-77
2023/01/21 05:15:32;;;;;;;249.55;52.75;;;;;;;-144.87;100.00;61487.56;5041348;28;20049;-77
2023/01/21 05:17:59;;;;;;;251.65;50.10;;;;;;;-144.87;100.00;61487.56;5007242;28;20405;-77
2023/01/21 05:20:25;;;;;;;239.95;50.83;;;;;;;-144.87;100.00;61487.56;5038916;28;20118;-77
2023/01/21 05:22:51;;;;;;;261.58;52.70;;;;;;;-144.87;100.00;61487.56;5010117;28;20034;-77
2023/01/21 05:25:18;;;;;;;251.85;50.78;;;;;;;-144.87;100.00;61487.56;5009170;28;20038;-77
2023/01/21 05:27:49;;;;;;;233.52;47.45;;;;;;;-144.87;100.00;61487.56;5040233;28;20042;-76
2023/01/21 05:30:16;;;;;;;250.25;52.47;;;;;;;-144.87;100.00;61487.56;5023059;28;20041;-76
2023/01/21 05:32:42;;;;;;;243.25;51.42;;;;;;;-144.87;100.00;61487.56;5040529;28;20042;-77
2023/01/21 05:35:10;;;;;;;239.73;52.55;;;;;;;-144.87;100.00;61487.56;5008820;28;20042;-77
2023/01/21 05:37:37;;;;;;;216.65;47.95;;;;;;;-144.87;100.00;61487.56;5007514;28;20041;-77
2023/01/21 05:40:03;;;;;;;209.07;48.60;;;;;;;-144.87;100.00;61487.56;5008956;28;20041;-77
2023/01/21 05:42:30;;;;;;;219.57;46.70;;;;;;;-144.87;100.00;61487.56;5007637;28;20038;-77
2023/01/21 05:44:56;;;;;;;222.50;47.70;;;;;;;-144.87;100.00;61487.56;5041532;28;20038;-77
2023/01/21 05:47:22;;;;;;;230.20;48.50;;;;;;;-144.87;100.00;61487.56;5040798;28;20460;-77
2023/01/21 05:49:49;;;;;;;218.15;48.47;;;;;;;-144.87;100.00;61487.56;5007014;28;20394;-78
2023/01/21 05:52:15;;;;;;;204.52;47.42;;;;;;;-144.87;100.00;61487.56;5038399;28;20042;-77
2023/01/21 05:54:41;;;;;;;210.18;45.20;;;;;;;-144.87;100.00;61487.56;5007592;28;20045;-77
2023/01/21 05:57:07;;;;;;;197.48;45.85;;;;;;;-144.87;100.00;61487.56;5007449;28;20030;-78
2023/01/21 05:59:34;;;;;;;176.65;43.70;;;;;;;-144.87;100.00;61487.56;5008428;28;20507;-77
2023/01/21 06:02:00;;;;;;;216.60;46.33;;;;;;;-144.87;100.00;61487.56;4998577;28;20026;-77
2023/01/21 06:04:29;;;;;;;202.27;46.75;;;;;;;-144.87;100.00;61487.56;5056420;28;20030;-77
2023/01/21 06:06:56;;;;;;;196.05;43.05;;;;;;;-144.87;100.00;61487.56;5033980;28;20362;-77
2023/01/21 06:09:22;;;;;;;185.18;45.13;;;;;;;-144.87;100.00;61487.56;5041270;28;20141;-77
2023/01/21 06:11:49;;;;;;;176.23;42.90;;;;;;;-144.87;100.00;61487.56;5008052;28;20030;-77
2023/01/21 06:14:15;;;;;;;173.68;42.00;;;;;;;-144.87;100.00;61487.56;5007837;28;20133;-76
2023/01/21 06:16:41;;;;;;;172.73;43.60;;;;;;;-144.87;100.00;61487.56;5040480;28;20044;-77
2023/01/21 06:19:07;;;;;;;195.27;41.88;;;;;;;-144.87;100.00;61487.56;5006778;28;20584;-77
2023/01/21 06:21:33;;;;;;;175.75;41.25;;;;;;;-144.87;100.00;61487.56;5024036;28;20034;-77
2023/01/21 06:24:01;;;;;;;189.80;44.42;;;;;;;-144.87;100.00;61487.56;5043183;28;20351;-77
2023/01/21 06:26:27;;;;;;;192.05;44.90;;;;;;;-144.87;100.00;61487.56;5011077;28;20087;-77
2023/01/21 06:28:57;;;;;;;209.07;46.75;;;;;;;-144.87;100.00;61487.56;5010358;28;20046;-77
2023/01/21 06:31:23;;;;;;;235.07;50.97;;;;;;;-144.87;100.00;61487.56;5025914;28;20034;-77
2023/01/21 06:33:50;;;;;;;211.27;45.75;;;;;;;-144.87;100.00;61487.56;5010683;28;20400;-77
2023/01/21 06:36:16;;;;;;;261.75;54.30;;;;;;;-144.87;100.00;61487.56;5010207;28;20050;-77
2023/01/21 06:38:42;;;;;;;291.73;53.78;;;;;;;-144.87;100.00;61487.56;5009392;28;20043;-77
2023/01/21 06:41:09;;;;;;;292.73;54.60;;;;;;;-144.87;100.00;61487.56;5040613;28;20045;-77
2023/01/21 06:43:35;;;;;;;299.42;54.90;;;;;;;-144.87;100.00;61487.56;5043440;28;20412;-77
2023/01/21 06:46:02;;;;;;;306.30;56.83;;;;;;;-144.87;100.00;61487.56;5012215;28;20041;-76
2023/01/21 06:48:28;;;;;;;524.75;65.80;;;;;;;-144.87;100.00;61487.56;5010170;28;20038;-77
2023/01/21 06:50:54;;;;;;;455.05;60.42;;;;;;;-144.87;100.00;61487.56;5009651;28;20121;-76
2023/01/21 06:53:21;;;;;;;384.50;57.72;;;;;;;-144.87;100.00;61487.56;5026421;28;20041;-77
2023/01/21 06:55:47;;;;;;;428.10;57.97;;;;;;;-144.87;100.00;61487.56;5010627;28;20065;-77
2023/01/21 06:58:13;;;;;;;481.58;61.83;;;;;;;-144.87;100.00;61487.56;5010149;28;20148;-77
2023/01/21 07:00:40;;;;;;;518.75;62.28;;;;;;;-144.87;100.00;61487.56;5043212;28;20034;-76
2023/01/21 07:03:06;;;;;;;392.35;58.28;;;;;;;-144.87;100.00;61487.56;5042779;28;20052;-77
2023/01/21 07:05:32;;;;;;;456.73;58.63;;;;;;;-144.87;100.00;61487.56;5043580;28;20025;-77
2023/01/21 07:07:59;;;;;;;494.33;59.60;;;;;;;-144.87;100.00;61487.56;5037307;28;20462;-77
2023/01/21 07:10:25;;;;;;;560.33;62.53;;;;;;;-144.87;100.00;61487.56;4996190;28;20378;-77
2023/01/21 07:12:51;;;;;;;714.40;72.60;;;;;;;-144.87;100.00;61487.56;5011158;28;20077;-77
2023/01/21 07:15:18;;;;;;;505.38;62.55;;;;;;;-144.87;100.00;61487.56;5009354;28;20397;-76
2023/01/21 07:17:44;;;;;;;646.83;65.72;;;;;;;-144.87;100.00;61487.56;5012486;28;20041;-77
2023/01/21 07:20:14;;;;;;;623.58;66.20;;;;;;;-144.87;100.00;61487.56;5042432;28;20175;-77
2023/01/21 07:22:40;;;;;;;656.15;67.68;;;;;;;-144.87;100.00;61487.56;5042076;28;20163;-77
2023/01/21 07:25:07;;;;;;;548.35;62.88;;;;;;;-144.87;100.00;61487.56;4989599;28;20041;-77
2023/01/21 07:27:33;;;;;;;557.72;67.28;;;;;;;-144.87;100.00;61487.56;4993251;28;20069;-76
2023/01/21 07:29:59;;;;;;;485.13;62.67;;;;;;;-144.87;100.00;61487.56;5006632;28;20121;-77
2023/01/21 07:32:26;;;;;;;678.45;69.25;;;;;;;-144.87;100.00;61487.56;5006053;28;20034;-76
2023/01/21 07:34:52;;;;;;;652.80;68.95;;;;;;;-144.87;100.00;61487.56;5010065;28;20316;-77
2023/01/21 07:37:18;;;;;;;697.45;66.07;;;;;;;-144.87;100.00;61487.56;5037995;28;20104;-77
2023/01/21 07:39:44;;;;;;;555.38;60.10;;;;;;;-144.87;100.00;61487.56;5007244;28;20437;-76
2023/01/21 07:42:10;;;;;;;575.08;64.57;;;;;;;-144.87;100.00;61487.56;5008496;28;20030;-77
2023/01/21 07:44:37;;;;;;;718.42;64.93;;;;;;;-144.87;100.00;61487.56;5010656;28;20261;-77
2023/01/21 07:47:03;;;;;;;843.92;78.55;;;;;;;-144.87;100.00;61487.56;5008172;28;20141;-76
2023/01/21 07:49:29;;;;;;;559.70;69.57;;;;;;;-144.87;100.00;61487.56;5009093;28;20053;-77
2023/01/21 07:51:56;;;;;;;597.70;64.13;;;;;;;-144.87;100.00;61487.56;5008454;28;20390;-77
2023/01/21 07:54:23;;;;;;;820.25;73.20;;;;;;;-144.87;100.00;61487.56;5041924;28;20042;-77
2023/01/21 07:56:49;;;;;;;844.90;73.70;;;;;;;-144.87;100.00;61487.56;5008932;28;20362;-77
2023/01/21 07:59:15;;;;;;;891.17;78.07;;;;;;;-144.87;100.00;61487.56;5010267;28;20058;-77
2023/01/21 08:01:42;;;;;;;793.22;68.55;;;;;;;-144.87;100.00;61487.56;5008498;28;20087;-77
2023/01/21 08:04:08;;;;;;;737.97;73.63;;;;;;;-144.87;100.00;61487.56;5007743;28;20044;-77
2023/01/21 08:06:36;;;;;;;995.80;87.03;;;;;;;-144.87;100.00;61487.56;5009612;28;20026;-77
2023/01/21 08:09:03;;;;;;;1061.32;82.05;;;;;;;-144.87;100.00;61487.56;5009696;28;20470;-77
2023/01/21 08:11:29;;;;;;;640.33;66.43;;;;;;;-144.87;100.00;61487.56;5010831;28;20065;-77
2023/01/21 08:13:56;;;;;;;817.20;71.15;;;;;;;-144.87;100.00;61487.56;4991603;28;20050;-77
2023/01/21 08:16:22;;;;;;;753.53;66.57;;;;;;;-144.87;100.00;61487.56;5009818;28;20060;-78
2023/01/21 08:18:48;;;;;;;993.88;78.70;;;;;;;-144.87;100.00;61487.56;5041333;28;20412;-77
2023/01/21 08:21:14;;;;;;;833.20;74.53;;;;;;;-144.87;100.00;61487.56;5011471;28;20065;-77
2023/01/21 08:23:41;;;;;;;640.95;62.33;;;;;;;-144.87;100.00;61487.56;5007034;28;20411;-77
2023/01/21 08:26:07;;;;;;;791.45;69.22;;;;;;;-144.87;100.00;61487.56;5024965;28;20417;-78
2023/01/21 08:28:34;;;;;;;606.55;61.25;;;;;;;-144.87;100.00;61487.56;5011686;28;20341;-78
2023/01/21 08:31:08;;;;;;;729.03;69.25;;;;;;;-144.87;100.00;61487.56;5046396;28;20053;-78
2023/01/21 08:33:35;;;;;;;459.67;53.67;;;;;;;-144.87;100.00;61487.56;5036106;28;20033;-77
2023/01/21 08:36:03;;;;;;;512.00;56.35;;;;;;;-144.87;100.00;61487.56;5019663;28;20068;-77
2023/01/21 08:38:29;;;;;;;453.67;64.82;;;;;;;-144.87;100.00;61487.56;5049267;28;20106;-78
2023/01/21 08:40:57;;;;;;;438.30;60.58;;;;;;;-144.87;100.00;61487.56;5014216;28;20044;-78
2023/01/21 08:43:23;;;;;;;446.05;54.38;;;;;;;-144.87;100.00;61487.56;5009682;28;20133;-78
2023/01/21 08:45:50;;;;;;;339.80;50.92;;;;;;;-144.87;100.00;61487.56;5008442;28;20050;-78
2023/01/21 08:48:16;;;;;;;357.55;56.10;;;;;;;-144.87;100.00;61487.56;5025106;28;20136;-78
2023/01/21 08:50:42;;;;;;;408.35;56.30;;;;;;;-144.87;100.00;61487.56;5024297;28;20676;-77
2023/01/21 08:53:10;;;;;;;328.67;54.13;;;;;;;-144.87;100.00;61487.56;5008974;28;20452;-77
2023/01/21 08:55:36;;;;;;;492.08;59.95;;;;;;;-144.87;100.00;61487.56;5010498;28;20420;-77
2023/01/21 08:58:04;;;;;;;448.23;56.95;;;;;;;-144.87;100.00;61487.56;5008588;28;20041;-77
2023/01/21 09:00:30;;;;;;;437.15;54.42;;;;;;;-144.87;100.00;61487.56;5025237;28;20068;-77
2023/01/21 09:02:58;;;;;;;431.08;54.95;;;;;;;-144.87;100.00;61487.56;5024501;28;20084;-78
2023/01/21 09:05:24;;;;;;;425.58;54.40;;;;;;;-144.87;100.00;61487.56;5023449;28;20104;-78
2023/01/21 09:07:51;;;;;;;382.67;55.10;;;;;;;-144.87;100.00;61487.56;5007590;28;20040;-78
2023/01/21 09:13:07;;;;;;;407.23;54.90;;;;;;;-144.87;100.00;61487.56;5003312;28;20075;-77
2023/01/21 09:15:38;;;;;;;489.27;59.60;;;;;;;-144.87;100.00;61487.56;5020471;28;20309;-78
2023/01/21 09:18:04;;;;;;;356.90;54.90;;;;;;;-144.87;100.00;61487.56;5023449;28;20120;-78
2023/01/21 09:20:31;;;;;;;334.83;51.33;;;;;;;-144.87;100.00;61487.56;4992033;28;20045;-78
2023/01/21 09:22:57;;;;;;;412.30;53.20;;;;;;;-144.87;100.00;61487.56;5024138;28;20040;-78
2023/01/21 09:25:24;;;;;;;389.05;53.67;;;;;;;-144.87;100.00;61487.56;5008117;28;20065;-78
2023/01/21 09:27:51;;;;;;;338.80;51.90;;;;;;;-144.87;100.00;61487.56;5022742;28;20038;-78
2023/01/21 09:30:17;;;;;;;305.95;45.92;;;;;;;-144.87;100.00;61487.56;5040950;28;20512;-78
2023/01/21 09:32:43;;;;;;;315.77;49.38;;;;;;;-144.87;100.00;61487.56;5026237;28;20048;-79
2023/01/21 09:35:10;;;;;;;316.75;53.38;;;;;;;-144.87;100.00;61487.56;5045825;28;20133;-79
2023/01/21 09:37:37;;;;;;;360.15;53.63;;;;;;;-144.87;100.00;61487.56;5024768;28;20156;-78
2023/01/21 09:40:03;;;;;;;349.08;51.70;;;;;;;-144.87;100.00;61487.56;5045137;28;20447;-78
2023/01/21 09:42:32;;;;;;;342.10;50.75;;;;;;;-144.87;100.00;61487.56;5010880;28;20124;-78
2023/01/21 09:44:59;;;;;;;344.00;52.38;;;;;;;-144.87;100.00;61487.56;5037882;28;20049;-78
2023/01/21 09:47:36;;;;;;;332.08;50.63;;;;;;;-144.87;100.00;61487.56;5008069;28;20034;-78
2023/01/21 09:50:07;;;;;;;320.75;51.72;;;;;;;-144.87;100.00;61487.56;5007531;28;20435;-78
2023/01/21 09:52:42;;;;;;;319.95;50.65;;;;;;;-144.87;100.00;61487.56;5039317;28;20278;-78
2023/01/21 09:55:22;;;;;;;329.75;52.63;;;;;;;-144.87;100.00;61487.56;5024300;28;20032;-78
2023/01/21 09:57:54;;;;;;;317.15;51.00;;;;;;;-144.87;100.00;61487.56;5044105;28;20495;-78
2023/01/21 10:00:29;;;;;;;332.42;50.58;;;;;;;-144.87;100.00;61487.56;5027633;28;20493;-78
2023/01/21 10:03:07;;;;;;;329.65;54.28;;;;;;;-144.87;100.00;61487.56;5044844;28;20057;-78
2023/01/21 10:05:51;;;;;;;313.60;54.28;;;;;;;-144.87;100.00;61487.56;5013132;28;20088;-78
2023/01/21 10:08:26;;;;;;;348.65;53.15;;;;;;;-144.87;100.00;61487.56;5044167;28;20362;-78
2023/01/21 10:11:21;;;;;;;351.70;55.67;;;;;;;-144.87;100.00;61487.56;5013685;28;20052;-78
2023/01/21 10:14:07;;;;;;;334.80;52.78;;;;;;;-144.87;100.00;61487.56;5012385;28;20029;-79
2023/01/21 10:16:52;;;;;;;330.98;57.05;;;;;;;-144.87;100.00;61487.56;5044776;28;20412;-78
2023/01/21 10:19:23;;;;;;;331.75;51.42;;;;;;;-144.87;100.00;61487.56;5013050;28;20050;-77
2023/01/21 10:21:55;;;;;;;;;;;;;;;-144.87;100.00;61487.56;5026153;28;20124;-78
2023/01/21 10:24:28;;;;;;;326.80;54.97;;;;;;;-144.87;100.00;61487.56;5023308;28;20381;-77
2023/01/21 10:26:54;;;;;;;336.33;55.08;;;;;;;-144.87;100.00;61487.56;5033427;28;20484;-77
2023/01/21 10:29:23;;;;;;;304.75;48.80;;;;;;;-144.87;100.00;61487.56;5012262;28;20357;-77
2023/01/21 10:32:04;;;;;;;312.83;52.28;;;;;;;-144.87;100.00;61487.56;5028332;28;20088;-78
2023/01/21 10:34:32;;;;;;;323.50;50.20;;;;;;;-144.87;100.00;61487.56;5021747;28;20034;-77
2023/01/21 10:36:58;;;;;;;315.75;51.47;;;;;;;-144.87;100.00;61487.56;5043626;28;20056;-78
2023/01/21 10:39:44;;;;;;;306.02;51.17;;;;;;;-144.87;100.00;61487.56;5044081;28;20360;-77
2023/01/21 10:42:35;;;;;;;319.27;50.95;;;;;;;-144.87;100.00;61487.56;5012577;28;20108;-78
2023/01/21 10:45:01;;;;;;;235.75;45.13;;;;;;;-144.87;100.00;61487.56;5026187;28;20962;-77
2023/01/21 10:48:01;;;;;;;273.10;46.65;;;;;;;-144.87;100.00;61487.56;5044722;28;20046;-78
2023/01/21 10:51:07;;;;;;;266.63;46.08;;;;;;;-144.87;100.00;61487.56;5043903;28;20050;-78
2023/01/21 10:53:52;;;;;;;276.48;46.83;;;;;;;-144.87;100.00;61487.56;5026461;28;20463;-78
2023/01/21 10:56:25;;;;;;;305.65;48.35;;;;;;;-144.87;100.00;61487.56;4991358;28;20121;-77
2023/01/21 10:58:53;;;;;;;278.85;47.08;;;;;;;-144.87;100.00;61487.56;5023460;28;20038;-78
2023/01/21 11:01:39;;;;;;;264.50;47.47;;;;;;;-144.87;100.00;61487.56;5025961;28;20041;-79
2023/01/21 11:04:13;;;;;;;243.90;44.00;;;;;;;-144.87;100.00;61487.56;5037842;28;20417;-77
2023/01/21 11:06:40;;;;;;;246.25;46.50;;;;;;;-144.87;100.00;61487.56;5030053;28;20040;-78